Time;durP1;ratioP1;P1;durP2;ratioP2;P2;SDS_P1;SDS_P2;PMS_P1;PMS_P2;Temp;Humidity;BMP_temperature;BMP_pressure;BME280_temperature;BME280_humidity;BME280_pressure;Samples;Min_cycle;Max_cycle;Signal;HPM_P1;HPM_P2
2023/12/03 00:01:48;;;;;;;14.88;6.93;;;-3.20;99.90;;;-4.48;100.00;97619.41;5002503;28;20025;-37
2023/12/03 00:04:13;;;;;;;13.13;6.60;;;-3.20;99.90;;;-4.44;100.00;97617.75;5008595;28;20092;-37
2023/12/03 00:06:39;;;;;;;11.68;6.80;;;-3.20;99.90;;;-4.45;100.00;97619.47;4996752;28;20025;-37
2023/12/03 00:09:05;;;;;;;12.05;6.70;;;-3.20;99.90;;;-4.50;100.00;97609.91;5001222;28;20214;-37
2023/12/03 00:11:31;;;;;;;10.52;5.88;;;-3.20;99.90;;;-4.53;100.00;97623.53;4997654;28;20390;-37
2023/12/03 00:13:57;;;;;;;14.23;7.03;;;-3.20;99.90;;;-4.49;100.00;97625.34;5002892;28;20045;-37
2023/12/03 00:16:22;;;;;;;11.52;6.57;;;-3.20;99.90;;;-4.47;100.00;97620.25;4984509;28;20037;-37
2023/12/03 00:18:48;;;;;;;12.32;6.57;;;-3.20;99.90;;;-4.43;100.00;97620.38;5002683;28;20397;-35
2023/12/03 00:21:14;;;;;;;11.32;6.85;;;-3.20;99.90;;;-4.49;100.00;97629.66;5006032;28;20030;-35
2023/12/03 00:23:39;;;;;;;13.70;6.93;;;-3.20;99.90;;;-4.48;100.00;97636.56;5002215;28;20044;-34
2023/12/03 00:26:05;;;;;;;12.32;7.00;;;-3.20;99.90;;;-4.50;100.00;97633.94;4989214;28;20517;-35
2023/12/03 00:28:31;;;;;;;14.75;7.05;;;-3.20;99.90;;;-4.58;100.00;97621.69;5003978;28;20076;-35
2023/12/03 00:30:57;;;;;;;14.68;6.97;;;-3.20;99.90;;;-4.52;100.00;97630.44;5003615;28;20075;-35
2023/12/03 00:33:22;;;;;;;13.57;6.82;;;-3.20;99.90;;;-4.57;100.00;97632.03;5005279;28;20029;-35
2023/12/03 00:35:48;;;;;;;10.95;6.40;;;-3.30;99.90;;;-4.57;100.00;97632.03;4998542;28;20022;-37
2023/12/03 00:38:14;;;;;;;11.07;6.85;;;-3.30;99.90;;;-4.62;100.00;97638.75;5001704;28;20033;-37
2023/12/03 00:40:39;;;;;;;12.48;6.82;;;-3.30;99.90;;;-4.60;100.00;97637.94;5005695;28;20030;-35
2023/12/03 00:43:05;;;;;;;12.65;7.05;;;-3.30;99.90;;;-4.59;100.00;97636.28;5004285;28;20033;-35
2023/12/03 00:45:31;;;;;;;12.23;6.30;;;-3.30;99.90;;;-4.58;100.00;97640.56;4999227;28;20030;-35
2023/12/03 00:47:57;;;;;;;12.15;6.38;;;-3.30;99.90;;;-4.57;100.00;97639.75;5004721;28;20032;-35
2023/12/03 00:50:22;;;;;;;12.13;7.20;;;-3.30;99.90;;;-4.61;100.00;97643.94;5001605;28;20041;-35
2023/12/03 00:52:48;;;;;;;10.93;6.40;;;-3.20;99.90;;;-4.54;100.00;97638.94;5001398;28;20038;-35
2023/12/03 00:55:14;;;;;;;12.35;6.53;;;-3.30;99.90;;;-4.58;100.00;97647.44;5000727;28;20072;-35
2023/12/03 00:57:40;;;;;;;11.13;6.07;;;-3.20;99.90;;;-4.60;100.00;97653.41;4998600;28;20434;-35
2023/12/03 01:00:07;;;;;;;12.88;6.75;;;-3.30;99.90;;;-4.61;100.00;97656.81;5007033;28;20040;-35
2023/12/03 01:02:33;;;;;;;11.25;6.20;;;-3.30;99.90;;;-4.61;100.00;97650.81;5002330;28;20534;-35
2023/12/03 01:04:59;;;;;;;13.48;7.30;;;-3.30;99.90;;;-4.60;100.00;97667.97;5003795;28;20128;-35
2023/12/03 01:07:25;;;;;;;9.88;5.50;;;-3.30;99.90;;;-4.61;100.00;97663.69;4995686;28;20040;-35
2023/12/03 01:09:50;;;;;;;12.77;5.93;;;-3.30;99.90;;;-4.63;100.00;97666.22;5001797;28;20037;-35
2023/12/03 01:12:16;;;;;;;12.43;6.50;;;-3.30;99.90;;;-4.63;100.00;97667.88;4996094;28;20037;-36
2023/12/03 01:14:42;;;;;;;14.25;6.55;;;-3.40;99.90;;;-4.66;100.00;97675.53;4997472;28;20065;-35
2023/12/03 01:17:07;;;;;;;10.73;5.88;;;-3.30;99.90;;;-4.62;100.00;97674.78;5005504;28;20026;-35
2023/12/03 01:19:33;;;;;;;11.20;6.25;;;-3.30;99.90;;;-4.59;100.00;97674.88;4984068;28;20505;-35
2023/12/03 01:21:59;;;;;;;12.82;5.88;;;-3.30;99.90;;;-4.50;100.00;97682.84;5004855;28;20026;-36
2023/12/03 01:24:24;;;;;;;10.27;5.82;;;-3.20;99.90;;;-4.45;100.00;97683.84;4996898;28;20116;-35
2023/12/03 01:26:50;;;;;;;11.45;6.03;;;-3.20;99.90;;;-4.44;100.00;97690.72;5002081;28;20045;-35
2023/12/03 01:29:16;;;;;;;12.45;6.32;;;-3.20;99.90;;;-4.43;100.00;97684.75;5006459;28;20148;-35
2023/12/03 01:31:41;;;;;;;10.15;5.60;;;-3.20;99.90;;;-4.39;100.00;97688.28;4998671;28;20057;-35
2023/12/03 01:34:07;;;;;;;10.45;5.95;;;-3.10;99.90;;;-4.32;100.00;97691.91;5006586;28;20061;-35
2023/12/03 01:36:33;;;;;;;11.10;6.25;;;-3.10;99.90;;;-4.29;100.00;97697.09;5001091;28;20324;-35
2023/12/03 01:38:58;;;;;;;11.68;6.13;;;-3.10;99.90;;;-4.26;100.00;97702.34;5002328;28;20143;-36
2023/12/03 01:41:24;;;;;;;10.50;6.18;;;-3.00;99.90;;;-4.23;100.00;97705.00;5004124;28;20044;-35
2023/12/03 01:43:52;;;;;;;9.93;5.80;;;-3.00;99.90;;;-4.22;100.00;97701.59;4999343;28;20686;-35
2023/12/03 01:46:22;;;;;;;12.38;6.65;;;-3.00;99.90;;;-4.17;100.00;97704.28;5004921;28;20037;-35
2023/12/03 01:48:48;;;;;;;14.32;6.80;;;-2.90;99.90;;;-4.20;100.00;97704.19;5002036;28;20310;-35
2023/12/03 01:51:14;;;;;;;11.68;6.35;;;-3.00;99.90;;;-4.25;100.00;97707.53;5008874;28;20137;-35
2023/12/03 01:53:42;;;;;;;11.73;6.10;;;-2.90;99.90;;;-4.22;100.00;97717.94;5001136;28;20064;-35
2023/12/03 01:56:10;;;;;;;10.32;6.03;;;-3.00;99.90;;;-4.22;100.00;97715.34;5007393;28;20104;-35
2023/12/03 01:58:36;;;;;;;11.02;6.13;;;-3.00;99.90;;;-4.21;100.00;97721.38;5002967;28;20088;-35
2023/12/03 02:01:02;;;;;;;9.13;5.40;;;-3.00;99.90;;;-4.22;100.00;97720.50;5001950;28;20037;-35
2023/12/03 02:03:28;;;;;;;12.13;6.90;;;-3.00;99.90;;;-4.17;100.00;97725.75;5008500;28;20959;-35
2023/12/03 02:06:08;;;;;;;12.77;6.43;;;-2.90;99.90;;;-4.15;100.00;97724.09;4999586;28;20084;-35
2023/12/03 02:08:35;;;;;;;10.77;5.72;;;-2.90;99.90;;;-4.11;100.00;97730.19;5002882;28;20516;-36
2023/12/03 02:11:05;;;;;;;10.88;5.80;;;-2.90;99.90;;;-4.11;100.00;97722.47;5004357;28;20429;-35
2023/12/03 02:13:33;;;;;;;10.63;5.80;;;-2.90;99.90;;;-4.14;100.00;97717.25;4996399;28;20096;-35
2023/12/03 02:15:59;;;;;;;11.82;6.20;;;-2.90;99.90;;;-4.13;100.00;97716.41;5000027;28;20034;-35
2023/12/03 02:18:26;;;;;;;12.23;6.10;;;-2.90;99.90;;;-4.17;100.00;97714.59;5001720;28;20148;-35
2023/12/03 02:20:53;;;;;;;11.38;6.30;;;-2.90;99.90;;;-4.15;100.00;97721.50;5003690;28;21140;-35
2023/12/03 02:23:19;;;;;;;12.73;6.35;;;-2.90;99.90;;;-4.13;100.00;97721.56;5004882;28;20053;-35
2023/12/03 02:25:46;;;;;;;9.98;6.10;;;-2.90;99.90;;;-4.13;100.00;97730.16;5004539;28;20046;-35
2023/12/03 02:28:12;;;;;;;11.55;6.45;;;-2.90;99.90;;;-4.16;100.00;97722.38;4996405;28;20033;-35
2023/12/03 02:30:37;;;;;;;9.80;6.07;;;-2.90;99.90;;;-4.17;100.00;97720.59;5004317;28;20022;-35
2023/12/03 02:33:03;;;;;;;10.75;5.95;;;-2.90;99.90;;;-4.14;100.00;97732.72;5003528;28;20034;-35
2023/12/03 02:35:29;;;;;;;11.32;6.30;;;-2.90;99.90;;;-4.12;100.00;97731.91;4994460;28;20077;-35
2023/12/03 02:37:55;;;;;;;10.48;5.75;;;-2.90;99.90;;;-4.14;100.00;97727.56;5007642;28;20561;-35
2023/12/03 02:40:20;;;;;;;11.98;5.80;;;-2.90;99.90;;;-4.23;100.00;97708.44;5000127;28;20090;-35
2023/12/03 02:42:46;;;;;;;10.65;5.80;;;-2.90;99.90;;;-4.11;100.00;97728.50;4996910;28;20092;-35
2023/12/03 02:45:12;;;;;;;10.38;5.65;;;-2.90;99.90;;;-4.09;100.00;97723.38;4999039;28;20049;-36
2023/12/03 02:47:38;;;;;;;11.18;6.13;;;-2.90;99.90;;;-4.09;100.00;97733.69;5000648;28;20054;-36
2023/12/03 02:50:04;;;;;;;10.18;5.25;;;-2.90;99.90;;;-4.07;100.00;97737.19;5003690;28;20299;-36
2023/12/03 02:52:30;;;;;;;9.75;5.45;;;-2.90;99.90;;;-4.07;100.00;97735.47;4998393;28;20054;-36
2023/12/03 02:54:55;;;;;;;10.45;5.93;;;-2.90;99.90;;;-4.09;100.00;97743.97;5004990;28;20386;-36
2023/12/03 02:57:21;;;;;;;10.70;5.63;;;-2.90;99.90;;;-4.10;100.00;97740.53;5003322;28;20116;-36
2023/12/03 02:59:47;;;;;;;11.27;6.20;;;-2.90;99.90;;;-4.09;100.00;97738.81;4995541;28;20057;-36
2023/12/03 03:02:13;;;;;;;10.32;5.60;;;-2.90;99.90;;;-4.18;100.00;97726.59;5008324;28;20386;-35
2023/12/03 03:04:38;;;;;;;11.00;6.40;;;-2.90;99.90;;;-4.10;100.00;97737.97;4999643;28;20052;-36
2023/12/03 03:07:05;;;;;;;10.55;6.63;;;-2.90;99.90;;;-4.10;100.00;97737.09;5005572;28;20112;-36
2023/12/03 03:09:30;;;;;;;9.25;5.85;;;-2.90;99.90;;;-4.11;100.00;97741.41;5004430;28;20033;-36
2023/12/03 03:11:57;;;;;;;10.00;5.72;;;-2.90;99.90;;;-4.11;100.00;97736.25;5004490;28;20502;-36
2023/12/03 03:14:24;;;;;;;9.30;5.60;;;-2.90;99.90;;;-4.12;100.00;97742.22;4979195;28;20359;-36
2023/12/03 03:16:50;;;;;;;11.05;5.55;;;-2.90;99.90;;;-4.14;100.00;97745.59;4985957;28;20098;-36
2023/12/03 03:19:16;;;;;;;10.48;5.78;;;-2.90;99.90;;;-4.16;100.00;97742.97;5004393;28;20672;-35
2023/12/03 03:21:41;;;;;;;9.93;5.70;;;-2.90;99.90;;;-4.13;100.00;97748.19;4998442;28;20225;-35
2023/12/03 03:24:07;;;;;;;9.00;5.20;;;-2.90;99.90;;;-4.12;100.00;97749.94;5001947;28;20332;-36
2023/12/03 03:26:33;;;;;;;10.30;5.43;;;-2.90;99.90;;;-4.09;100.00;97754.28;5001737;28;20109;-37
2023/12/03 03:28:59;;;;;;;11.95;5.82;;;-2.90;99.90;;;-4.09;100.00;97750.03;5002349;28;20045;-36
2023/12/03 03:31:24;;;;;;;8.15;5.32;;;-2.90;99.90;;;-4.08;100.00;97754.34;4997198;28;20120;-36
2023/12/03 03:33:50;;;;;;;7.90;4.95;;;-2.90;99.90;;;-4.14;100.00;97745.59;5000962;28;20068;-36
2023/12/03 03:36:17;;;;;;;9.30;5.45;;;-2.90;99.90;;;-4.09;100.00;97751.72;5003872;28;20026;-36
2023/12/03 03:38:45;;;;;;;8.65;5.28;;;-2.90;99.90;;;-4.13;100.00;97753.34;5003755;28;20052;-36
2023/12/03 03:41:11;;;;;;;9.13;4.93;;;-2.90;99.90;;;-4.13;100.00;97763.63;5003500;28;20034;-36
2023/12/03 03:43:37;;;;;;;7.65;4.53;;;-3.00;99.90;;;-4.14;100.00;97756.75;4991052;28;20073;-36
2023/12/03 03:46:03;;;;;;;9.65;5.68;;;-2.90;99.90;;;-4.23;100.00;97749.66;4997745;28;20112;-37
2023/12/03 03:48:29;;;;;;;9.45;5.68;;;-3.00;99.90;;;-4.30;100.00;97760.63;5002739;28;20061;-37
2023/12/03 03:50:55;;;;;;;8.80;4.90;;;-3.10;99.90;;;-4.30;100.00;97762.34;4998509;28;20026;-36
2023/12/03 03:53:21;;;;;;;9.50;5.32;;;-3.10;99.90;;;-4.27;100.00;97758.13;5002025;28;20033;-37
2023/12/03 03:55:47;;;;;;;8.98;5.38;;;-3.10;99.90;;;-4.31;100.00;97756.28;4998605;28;20084;-36
2023/12/03 03:58:13;;;;;;;8.63;5.10;;;-3.00;99.90;;;-4.27;100.00;97762.41;5002001;28;20034;-36
2023/12/03 04:00:39;;;;;;;9.40;5.15;;;-3.10;99.90;;;-4.28;100.00;97768.38;5002694;28;20024;-36
2023/12/03 04:03:05;;;;;;;8.10;4.88;;;-3.10;99.90;;;-4.30;100.00;97764.91;5003623;28;20184;-36
2023/12/03 04:05:30;;;;;;;9.82;5.65;;;-3.10;99.90;;;-4.36;100.00;97769.88;4996663;28;20077;-36
2023/12/03 04:07:56;;;;;;;8.27;4.97;;;-3.10;99.90;;;-4.42;100.00;97752.56;5000140;28;20042;-36
2023/12/03 04:10:22;;;;;;;8.93;5.53;;;-3.20;99.90;;;-4.45;100.00;97755.03;5004255;28;20501;-36
2023/12/03 04:12:48;;;;;;;10.65;5.63;;;-3.20;99.90;;;-4.54;100.00;97752.22;4997256;28;20040;-36
2023/12/03 04:15:14;;;;;;;9.60;5.72;;;-3.30;99.90;;;-4.71;100.00;97732.03;5001519;28;20030;-36
2023/12/03 04:17:39;;;;;;;8.85;5.35;;;-3.40;99.90;;;-4.70;100.00;97746.66;5020814;22;20401;-37
2023/12/03 04:20:06;;;;;;;9.13;5.38;;;-3.50;99.90;;;-4.74;100.00;97755.09;4990431;28;20507;-37
2023/12/03 04:22:32;;;;;;;10.30;5.65;;;-3.50;99.90;;;-4.80;100.00;97753.22;4990618;28;20107;-37
2023/12/03 04:24:58;;;;;;;9.25;4.85;;;-3.60;99.90;;;-4.84;100.00;97758.25;4988713;28;20042;-37
2023/12/03 04:27:25;;;;;;;9.88;5.78;;;-3.60;99.90;;;-4.99;100.00;97750.94;4994206;28;20025;-37
2023/12/03 04:29:51;;;;;;;10.50;5.63;;;-3.60;99.90;;;-4.85;100.00;97774.50;4984513;28;20029;-37
2023/12/03 04:32:16;;;;;;;11.35;6.15;;;-3.60;99.90;;;-4.87;100.00;97769.31;4990486;28;20648;-34
2023/12/03 04:34:42;;;;;;;10.43;6.20;;;-3.60;99.90;;;-4.81;100.00;97777.22;4993541;28;20092;-34
2023/12/03 04:37:08;;;;;;;11.38;6.05;;;-3.50;99.90;;;-4.77;100.00;97775.59;4990733;28;20124;-34
2023/12/03 04:39:34;;;;;;;10.35;5.68;;;-3.50;99.90;;;-4.80;100.00;97765.22;4996155;28;20033;-34
2023/12/03 04:42:00;;;;;;;10.60;5.95;;;-3.50;99.90;;;-4.68;100.00;97775.00;4992094;28;20409;-34
2023/12/03 04:44:27;;;;;;;11.18;6.10;;;-3.50;99.90;;;-4.68;100.00;97778.44;4991822;28;20037;-34
2023/12/03 04:46:53;;;;;;;13.18;6.03;;;-3.50;99.90;;;-4.67;100.00;97779.31;4988668;28;20095;-35
2023/12/03 04:49:19;;;;;;;10.00;5.47;;;-3.40;99.90;;;-4.68;100.00;97773.31;4995731;28;20042;-34
2023/12/03 04:51:44;;;;;;;10.50;6.00;;;-3.40;99.90;;;-4.70;100.00;97780.09;4988182;28;20490;-34
2023/12/03 04:54:10;;;;;;;10.50;5.70;;;-3.40;99.90;;;-4.80;100.00;97773.78;4988888;28;20072;-35
2023/12/03 04:56:36;;;;;;;10.57;6.18;;;-3.50;99.90;;;-4.87;100.00;97782.16;4990268;28;20046;-34
2023/12/03 04:59:01;;;;;;;11.15;6.07;;;-3.60;99.90;;;-5.01;100.00;97784.34;4989572;28;20517;-34
2023/12/03 05:01:27;;;;;;;9.48;5.65;;;-3.70;99.90;;;-5.18;100.00;97780.38;4985917;28;20103;-35
2023/12/03 05:03:53;;;;;;;9.52;5.57;;;-3.90;99.90;;;-5.31;100.00;97779.13;4993365;28;20203;-34
2023/12/03 05:06:19;;;;;;;11.25;6.03;;;-4.00;99.90;;;-5.46;100.00;97782.06;4990745;28;20029;-35
2023/12/03 05:08:45;;;;;;;11.00;5.97;;;-4.20;99.90;;;-5.52;100.00;97794.72;4972410;28;20395;-35
2023/12/03 05:11:10;;;;;;;10.80;6.15;;;-4.30;99.90;;;-5.62;100.00;97796.09;4989979;28;20038;-35
2023/12/03 05:13:36;;;;;;;10.50;6.25;;;-4.40;99.90;;;-5.75;100.00;97799.09;4991085;28;20326;-35
2023/12/03 05:16:04;;;;;;;10.10;5.40;;;-4.50;99.90;;;-5.88;100.00;97795.25;4987344;28;20033;-35
2023/12/03 05:18:30;;;;;;;9.35;5.68;;;-4.60;99.90;;;-5.94;100.00;97800.16;4995325;28;20034;-35
2023/12/03 05:20:57;;;;;;;10.93;5.80;;;-4.60;99.90;;;-6.01;100.00;97804.28;4988989;28;20034;-35
2023/12/03 05:23:24;;;;;;;10.48;5.35;;;-4.70;99.90;;;-6.09;100.00;97799.69;4993125;28;20088;-35
2023/12/03 05:25:49;;;;;;;10.10;5.47;;;-4.80;99.90;;;-6.10;100.00;97803.97;4988401;28;20061;-35
2023/12/03 05:28:15;;;;;;;11.05;5.70;;;-4.90;99.90;;;-6.20;100.00;97794.19;4983403;28;20393;-35
2023/12/03 05:30:41;;;;;;;12.50;5.88;;;-4.90;99.90;;;-6.23;100.00;97804.34;4983014;28;20037;-36
2023/12/03 05:33:06;;;;;;;10.77;5.47;;;-4.90;99.90;;;-6.28;100.00;97803.28;4990304;28;20912;-35
2023/12/03 05:35:33;;;;;;;9.82;5.50;;;-5.00;99.90;;;-6.32;100.00;97793.75;4991646;28;20038;-35
2023/12/03 05:37:59;;;;;;;10.05;5.57;;;-5.00;99.90;;;-6.44;100.00;97787.38;4988132;28;20117;-35
2023/12/03 05:40:24;;;;;;;10.30;5.82;;;-5.00;99.90;;;-6.38;100.00;97802.09;4995188;28;20141;-35
2023/12/03 05:42:50;;;;;;;10.65;5.65;;;-5.10;99.90;;;-6.47;100.00;97794.94;4996363;28;20026;-35
2023/12/03 05:45:16;;;;;;;12.50;5.97;;;-5.10;99.90;;;-6.44;100.00;97810.47;4991683;28;20458;-35
2023/12/03 05:47:42;;;;;;;11.75;6.18;;;-5.10;99.90;;;-6.50;100.00;97799.09;4992912;28;20478;-35
2023/12/03 05:50:08;;;;;;;9.20;5.32;;;-5.20;99.90;;;-6.47;100.00;97819.75;4988406;28;20037;-35
2023/12/03 05:52:33;;;;;;;10.98;5.53;;;-5.20;99.90;;;-6.52;100.00;97811.88;4991559;28;20536;-35
2023/12/03 05:54:59;;;;;;;10.80;5.93;;;-5.20;99.90;;;-6.59;100.00;97786.81;4993928;28;20129;-35
2023/12/03 05:57:25;;;;;;;11.10;5.93;;;-5.20;99.90;;;-6.54;100.00;97809.25;4992722;28;20034;-36
2023/12/03 05:59:52;;;;;;;9.88;5.50;;;-5.30;99.90;;;-6.55;100.00;97816.88;4990846;28;20060;-35
2023/12/03 06:02:18;;;;;;;10.77;5.57;;;-5.20;99.90;;;-6.61;100.00;97803.84;4990589;28;20084;-35
2023/12/03 06:04:43;;;;;;;11.65;5.55;;;-5.30;99.90;;;-6.58;100.00;97809.09;4989252;28;20117;-35
2023/12/03 06:07:09;;;;;;;11.15;6.18;;;-5.30;99.90;;;-6.61;100.00;97814.97;4992640;28;20040;-36
2023/12/03 06:09:35;;;;;;;11.35;6.10;;;-5.30;99.90;;;-6.74;100.00;97795.69;4991406;28;20509;-36
2023/12/03 06:12:01;;;;;;;11.90;5.90;;;-5.40;99.90;;;-6.68;100.00;97809.56;4995343;28;20041;-36
2023/12/03 06:14:27;;;;;;;11.05;5.97;;;-5.40;99.90;;;-6.67;100.00;97814.75;4998005;28;20410;-36
2023/12/03 06:16:52;;;;;;;11.60;5.72;;;-5.40;99.90;;;-6.69;100.00;97815.50;4992852;28;20116;-36
2023/12/03 06:19:18;;;;;;;12.68;5.53;;;-5.40;99.90;;;-6.78;100.00;97801.53;4997905;28;20029;-37
2023/12/03 06:21:44;;;;;;;11.43;5.95;;;-5.50;99.90;;;-6.71;100.00;97812.91;4993346;28;20450;-36
2023/12/03 06:24:09;;;;;;;10.05;5.90;;;-5.40;99.90;;;-6.80;100.00;97802.25;4999410;28;20033;-36
2023/12/03 06:26:35;;;;;;;14.13;6.95;;;-5.40;99.90;;;-6.82;100.00;97815.06;4992066;28;20026;-36
2023/12/03 06:29:01;;;;;;;12.10;6.30;;;-5.50;99.90;;;-6.82;100.00;97825.31;4989953;28;20092;-36
2023/12/03 06:31:27;;;;;;;13.68;6.90;;;-5.50;99.90;;;-6.89;100.00;97812.19;4990637;28;20033;-37
2023/12/03 06:33:53;;;;;;;13.93;6.40;;;-5.60;99.90;;;-6.87;100.00;97821.69;4993354;28;20044;-36
2023/12/03 06:36:19;;;;;;;12.38;6.45;;;-5.50;99.90;;;-6.86;100.00;97828.56;4995473;28;20029;-36
2023/12/03 06:38:45;;;;;;;14.00;6.55;;;-5.50;99.90;;;-7.07;100.00;97792.72;4995279;28;20474;-37
2023/12/03 06:41:11;;;;;;;14.77;7.65;;;-5.60;99.90;;;-6.92;100.00;97833.47;4993710;28;20029;-36
2023/12/03 06:43:37;;;;;;;13.60;7.07;;;-5.60;99.90;;;-6.92;100.00;97825.78;4988915;28;20040;-35
2023/12/03 06:46:02;;;;;;;14.95;7.25;;;-5.60;99.90;;;-6.91;100.00;97824.94;4993492;28;20026;-37
2023/12/03 06:48:28;;;;;;;13.13;6.13;;;-5.60;99.90;;;-6.84;100.00;97837.19;4996514;28;20479;-36
2023/12/03 06:50:54;;;;;;;12.32;6.47;;;-5.60;99.90;;;-6.85;100.00;97834.59;4991388;28;20061;-36
2023/12/03 06:53:20;;;;;;;15.48;6.82;;;-5.60;99.90;;;-6.87;100.00;97831.06;4995792;28;20060;-37
2023/12/03 06:55:46;;;;;;;12.65;6.55;;;-5.60;99.90;;;-6.95;100.00;97820.53;4993125;28;20025;-36
2023/12/03 06:58:12;;;;;;;13.32;7.05;;;-5.60;99.90;;;-6.89;100.00;97833.59;4995253;28;20486;-36
2023/12/03 07:00:38;;;;;;;14.80;7.22;;;-5.60;99.90;;;-6.88;100.00;97830.19;4990698;28;20030;-36
2023/12/03 07:03:03;;;;;;;13.13;6.60;;;-5.60;99.90;;;-6.86;100.00;97837.94;4997093;28;20026;-36
2023/12/03 07:05:29;;;;;;;14.18;7.35;;;-5.60;99.90;;;-6.89;100.00;97841.28;4994712;28;20217;-36
2023/12/03 07:07:55;;;;;;;13.27;7.10;;;-5.60;99.90;;;-6.87;100.00;97847.34;4990811;28;20523;-36
2023/12/03 07:10:21;;;;;;;15.10;7.53;;;-5.60;99.90;;;-6.80;100.00;97846.75;4994810;28;20041;-36
2023/12/03 07:12:46;;;;;;;15.43;6.55;;;-5.50;99.90;;;-6.96;100.00;97826.47;4993299;28;20068;-36
2023/12/03 07:15:12;;;;;;;12.07;6.68;;;-5.50;99.90;;;-6.91;100.00;97833.53;4991956;28;20494;-36
2023/12/03 07:17:41;;;;;;;14.52;7.10;;;-5.50;99.90;;;-6.79;100.00;97856.19;4995691;28;20427;-36
2023/12/03 07:20:08;;;;;;;13.32;7.13;;;-5.50;99.90;;;-6.80;100.00;97845.88;4991461;28;20708;-35
2023/12/03 07:22:33;;;;;;;14.13;7.53;;;-5.40;99.90;;;-6.77;100.00;97854.56;4995855;28;20505;-36
2023/12/03 07:24:59;;;;;;;12.20;6.90;;;-5.40;99.90;;;-6.77;100.00;97859.69;4993291;28;20045;-36
2023/12/03 07:27:25;;;;;;;16.17;7.10;;;-5.40;99.90;;;-6.74;100.00;97859.81;4993085;28;20065;-36
2023/12/03 07:29:56;;;;;;;13.65;7.03;;;-5.40;99.90;;;-6.71;100.00;97864.19;4993233;28;20497;-36
2023/12/03 07:32:25;;;;;;;15.13;7.30;;;-5.40;99.90;;;-6.66;100.00;97861.78;4989818;28;20037;-36
2023/12/03 07:34:51;;;;;;;14.27;7.55;;;-5.40;99.90;;;-6.60;100.00;97864.59;4992513;28;20362;-36
2023/12/03 07:37:17;;;;;;;12.88;7.05;;;-5.30;99.90;;;-6.59;100.00;97856.94;4986633;28;20477;-36
2023/12/03 07:39:42;;;;;;;14.88;7.28;;;-5.30;99.90;;;-6.56;100.00;97848.50;4990067;28;20022;-36
2023/12/03 07:42:08;;;;;;;15.35;8.13;;;-5.20;99.90;;;-6.46;100.00;97858.31;4998186;28;20026;-36
2023/12/03 07:44:34;;;;;;;13.63;7.63;;;-5.20;99.90;;;-6.41;100.00;97873.84;4995555;28;20454;-36
2023/12/03 07:47:01;;;;;;;12.77;6.93;;;-5.10;99.90;;;-6.37;100.00;97876.59;4994006;28;20037;-36
2023/12/03 07:49:26;;;;;;;12.70;6.65;;;-5.10;99.90;;;-6.37;100.00;97878.28;4990715;28;20831;-36
2023/12/03 07:51:52;;;;;;;14.75;7.65;;;-5.10;99.90;;;-6.31;100.00;97886.22;4989448;28;20562;-36
2023/12/03 07:54:18;;;;;;;14.57;7.30;;;-5.00;99.90;;;-6.24;100.00;97892.47;4993378;28;20034;-36
2023/12/03 07:56:44;;;;;;;15.27;7.72;;;-5.00;99.90;;;-6.23;100.00;97879.66;4995290;28;20072;-36
2023/12/03 07:59:09;;;;;;;13.48;7.50;;;-4.90;99.90;;;-6.15;100.00;97887.66;4995590;28;20026;-36
2023/12/03 08:01:36;;;;;;;13.63;7.35;;;-4.80;99.90;;;-6.15;100.00;97887.66;4991862;28;20068;-36
2023/12/03 08:04:03;;;;;;;14.85;7.75;;;-4.80;99.90;;;-6.05;100.00;97892.28;4993523;28;20029;-36
2023/12/03 08:06:30;;;;;;;16.90;7.82;;;-4.70;99.90;;;-6.04;100.00;97880.34;4993018;28;20498;-36
2023/12/03 08:08:57;;;;;;;17.00;8.77;;;-4.70;99.90;;;-5.92;100.00;97890.13;4988149;28;20046;-36
2023/12/03 08:11:23;;;;;;;15.05;8.15;;;-4.60;99.90;;;-5.84;100.00;97883.56;4995361;28;20449;-37
2023/12/03 08:13:48;;;;;;;15.27;7.65;;;-4.60;99.90;;;-5.79;100.00;97884.63;4993312;28;20029;-36
2023/12/03 08:16:15;;;;;;;14.30;7.55;;;-4.50;99.90;;;-5.75;100.00;97894.16;4994652;28;20077;-36
2023/12/03 08:18:41;;;;;;;18.23;8.48;;;-4.50;99.90;;;-5.68;100.00;97880.72;4992896;28;20136;-37
2023/12/03 08:21:06;;;;;;;16.33;8.30;;;-4.40;99.90;;;-5.57;100.00;97887.09;4994083;28;20471;-36
2023/12/03 08:23:32;;;;;;;15.00;7.88;;;-4.40;99.90;;;-5.52;100.00;97887.25;4993039;28;20109;-36
2023/12/03 08:26:03;;;;;;;16.58;8.02;;;-4.20;99.90;;;-5.42;100.00;97894.47;4993500;28;20368;-36
2023/12/03 08:28:30;;;;;;;13.93;8.07;;;-4.20;99.90;;;-5.33;100.00;97899.00;4993809;28;20465;-36
2023/12/03 08:30:55;;;;;;;16.17;7.70;;;-4.10;99.90;;;-5.28;100.00;97889.75;4991144;28;20293;-36
2023/12/03 08:33:21;;;;;;;15.95;7.75;;;-4.00;99.90;;;-5.16;100.00;97898.72;4991695;28;20130;-36
2023/12/03 08:35:47;;;;;;;17.00;8.02;;;-3.90;99.90;;;-5.13;100.00;97901.38;4989239;28;20034;-36
2023/12/03 08:38:13;;;;;;;15.77;8.45;;;-3.90;99.90;;;-5.07;100.00;97896.44;4993901;28;20119;-36
2023/12/03 08:40:39;;;;;;;18.63;9.27;;;-3.80;99.90;;;-5.06;100.00;97882.75;4992797;28;20044;-36
2023/12/03 08:43:05;;;;;;;17.52;8.48;;;-3.70;99.90;;;-4.97;100.00;97898.50;4992445;28;20426;-36
2023/12/03 08:45:32;;;;;;;14.85;8.32;;;-3.70;99.90;;;-4.96;100.00;97900.22;4991438;28;20939;-36
2023/12/03 08:48:00;;;;;;;15.82;8.27;;;-3.60;99.90;;;-4.86;100.00;97902.28;4993645;28;20046;-36
2023/12/03 08:50:28;;;;;;;14.50;7.78;;;-3.60;99.90;;;-4.84;100.00;97898.06;4995118;28;20029;-38
2023/12/03 08:52:54;;;;;;;16.10;8.43;;;-3.50;99.90;;;-4.75;100.00;97894.91;4986266;28;20079;-36
2023/12/03 08:55:20;;;;;;;13.20;7.40;;;-3.50;99.90;;;-4.68;100.00;97903.69;4985034;28;20040;-36
2023/12/03 08:57:46;;;;;;;15.88;8.30;;;-3.40;99.90;;;-4.66;100.00;97908.03;4986682;28;20034;-36
2023/12/03 09:00:13;;;;;;;14.98;7.82;;;-3.40;99.90;;;-4.62;100.00;97907.31;4985348;28;20536;-36
2023/12/03 09:02:39;;;;;;;15.07;8.48;;;-3.40;99.90;;;-4.70;100.00;97892.44;4991001;28;20021;-36
2023/12/03 09:05:05;;;;;;;16.90;8.55;;;-3.30;99.90;;;-4.54;100.00;97916.97;4994177;28;20519;-36
2023/12/03 09:07:31;;;;;;;18.35;8.63;;;-3.30;99.90;;;-4.50;100.00;97923.97;4991640;28;20460;-36
2023/12/03 09:10:00;;;;;;;15.30;7.85;;;-3.20;99.90;;;-4.65;100.00;97891.78;4994948;28;20038;-36
2023/12/03 09:12:25;;;;;;;16.63;8.43;;;-3.20;99.90;;;-4.46;100.00;97913.81;4987978;28;20108;-36
2023/12/03 09:14:51;;;;;;;15.68;8.38;;;-3.20;99.90;;;-4.58;100.00;97890.25;4992404;28;20034;-36
2023/12/03 09:17:17;;;;;;;17.25;8.60;;;-3.20;99.90;;;-4.37;100.00;97912.34;4991641;28;20034;-37
2023/12/03 09:19:42;;;;;;;15.13;8.38;;;-3.10;99.90;;;-4.35;100.00;97906.41;4991127;28;20049;-36
2023/12/03 09:22:08;;;;;;;14.43;8.05;;;-3.10;99.90;;;-4.27;100.00;97902.38;4990527;28;20045;-36
2023/12/03 09:24:34;;;;;;;14.68;8.02;;;-3.00;99.90;;;-4.27;100.00;97897.22;4991873;28;20042;-36
2023/12/03 09:27:00;;;;;;;15.02;7.75;;;-3.00;99.90;;;-4.19;100.00;97900.00;4993776;28;20073;-36
2023/12/03 09:29:25;;;;;;;16.95;8.32;;;-2.90;99.90;;;-4.14;100.00;97898.44;4996068;28;20029;-36
2023/12/03 09:31:51;;;;;;;17.92;9.27;;;-2.90;99.90;;;-4.14;100.00;97893.28;4986092;28;20065;-35
2023/12/03 09:34:17;;;;;;;17.02;8.23;;;-2.90;99.90;;;-4.09;100.00;97899.44;4981950;28;20025;-36
2023/12/03 09:36:42;;;;;;;16.08;8.82;;;-2.80;99.90;;;-4.09;100.00;97893.41;4981612;28;20038;-37
2023/12/03 09:39:08;;;;;;;13.88;7.93;;;-2.80;99.90;;;-4.12;100.00;97891.63;4989360;28;20375;-38
2023/12/03 09:41:42;;;;;;;15.10;7.75;;;-2.80;99.90;;;-4.04;100.00;97890.16;4987464;28;20041;-37
2023/12/03 09:44:35;;;;;;;14.57;7.60;;;-2.80;99.90;;;-4.02;100.00;97885.00;4987552;28;20088;-36
2023/12/03 09:47:02;;;;;;;18.90;8.73;;;-2.70;99.90;;;-3.98;100.00;97891.13;4980625;28;20042;-36
2023/12/03 09:49:29;;;;;;;16.50;7.88;;;-2.70;99.90;;;-3.94;100.00;97882.69;4980874;28;20119;-36
2023/12/03 09:52:00;;;;;;;14.93;7.93;;;-2.70;99.90;;;-3.81;100.00;97900.22;4994194;28;20041;-36
2023/12/03 09:54:26;;;;;;;19.33;8.75;;;-2.60;99.90;;;-3.77;100.00;97903.75;4992508;28;20033;-36
2023/12/03 09:56:57;;;;;;;19.38;8.50;;;-2.50;99.90;;;-3.79;100.00;97889.94;4986432;28;20168;-37
2023/12/03 09:59:24;;;;;;;17.30;8.27;;;-2.50;99.90;;;-3.71;100.00;97888.47;4993870;28;20030;-37
2023/12/03 10:01:50;;;;;;;16.73;8.65;;;-2.50;99.90;;;-3.68;100.00;97897.16;4977678;28;20028;-36
2023/12/03 10:04:16;;;;;;;13.57;7.97;;;-2.50;99.90;;;-3.63;100.00;97897.25;4994496;28;20526;-37